Time;durP1;ratioP1;P1;durP2;ratioP2;P2;SDS_P1;SDS_P2;PMS_P1;PMS_P2;Temp;Humidity;BMP_temperature;BMP_pressure;BME280_temperature;BME280_humidity;BME280_pressure;Samples;Min_cycle;Max_cycle;Signal;HPM_P1;HPM_P2
2023/05/26 00:02:21;;;;;;;6.43;4.18;;;;;;;;;;4979438;28;20050;-80
2023/05/26 00:04:49;;;;;;;7.25;4.40;;;;;;;;;;4962936;28;20131;-80
2023/05/26 00:07:16;;;;;;;6.70;4.15;;;;;;;;;;4981673;28;20087;-80
2023/05/26 00:09:43;;;;;;;6.47;4.35;;;;;;;;;;4985648;28;20080;-79
2023/05/26 00:12:10;;;;;;;5.72;4.40;;;;;;;;;;4985053;28;20502;-80
2023/05/26 00:14:36;;;;;;;6.55;4.57;;;;;;;;;;4985074;28;20058;-79
2023/05/26 00:17:04;;;;;;;8.70;4.40;;;;;;;;;;4966466;28;20074;-79
2023/05/26 00:19:31;;;;;;;6.90;4.65;;;;;;;;;;4999511;28;20084;-80
2023/05/26 00:21:58;;;;;;;8.38;4.47;;;;;;;;;;5017143;28;20053;-79
2023/05/26 00:24:25;;;;;;;7.28;4.07;;;;;;;;;;5001313;28;20088;-80
2023/05/26 00:26:52;;;;;;;6.80;4.82;;;;;;;;;;4969277;28;20074;-81
2023/05/26 00:29:19;;;;;;;8.30;4.75;;;;;;;;;;4962789;28;20058;-80
2023/05/26 00:31:55;;;;;;;6.53;4.30;;;;;;;;;;4965883;28;20081;-80
2023/05/26 00:34:22;;;;;;;9.10;4.80;;;;;;;;;;4965135;28;20062;-80
2023/05/26 00:36:49;;;;;;;6.55;4.82;;;;;;;;;;4978335;28;20060;-79
2023/05/26 00:39:15;;;;;;;9.32;4.18;;;;;;;;;;4986040;28;20555;-80
2023/05/26 00:41:42;;;;;;;8.55;4.38;;;;;;;;;;4988635;28;20049;-80
2023/05/26 00:44:09;;;;;;;4.95;3.95;;;;;;;;;;4988766;28;20061;-80
2023/05/26 00:46:36;;;;;;;8.68;4.43;;;;;;;;;;4975645;28;20506;-80
2023/05/26 00:49:03;;;;;;;7.72;4.85;;;;;;;;;;4981586;28;20065;-78
2023/05/26 00:51:31;;;;;;;8.25;4.50;;;;;;;;;;4982580;28;20525;-80
2023/05/26 00:53:58;;;;;;;8.45;4.38;;;;;;;;;;4966460;28;20050;-80
2023/05/26 00:56:27;;;;;;;7.55;4.47;;;;;;;;;;4977190;28;20107;-80
2023/05/26 00:58:58;;;;;;;4.78;3.70;;;;;;;;;;5006442;28;20421;-80
2023/05/26 01:01:25;;;;;;;7.40;4.43;;;;;;;;;;5004978;28;20445;-80
2023/05/26 01:03:52;;;;;;;9.55;4.70;;;;;;;;;;5021049;28;20054;-80
2023/05/26 01:06:20;;;;;;;6.35;5.05;;;;;;;;;;4986411;28;20107;-80
2023/05/26 01:08:47;;;;;;;7.65;4.60;;;;;;;;;;4989455;28;20049;-81
2023/05/26 01:11:29;;;;;;;9.55;4.63;;;;;;;;;;4988970;28;20053;-81
2023/05/26 01:13:59;;;;;;;6.28;4.35;;;;;;;;;;5006525;28;20046;-81
2023/05/26 01:16:30;;;;;;;6.38;4.45;;;;;;;;;;4994157;28;20337;-81
2023/05/26 01:19:24;;;;;;;7.72;4.53;;;;;;;;;;4996116;28;20517;-81
2023/05/26 01:21:51;;;;;;;10.43;5.07;;;;;;;;;;5002534;28;20085;-81
2023/05/26 01:24:40;;;;;;;8.82;4.57;;;;;;;;;;4987580;28;20057;-81
2023/05/26 01:27:18;;;;;;;7.25;5.05;;;;;;;;;;4989242;28;20399;-81
2023/05/26 01:29:45;;;;;;;9.45;4.82;;;;;;;;;;4995278;28;20419;-82
2023/05/26 01:32:16;;;;;;;7.88;4.88;;;;;;;;;;4979699;28;20050;-81
2023/05/26 01:34:43;;;;;;;8.52;4.40;;;;;;;;;;4995984;28;20046;-81
2023/05/26 01:37:10;;;;;;;6.95;4.68;;;;;;;;;;5002358;28;20493;-82
2023/05/26 01:39:37;;;;;;;7.05;4.70;;;;;;;;;;4986166;28;20053;-81
2023/05/26 01:42:33;;;;;;;9.13;4.20;;;;;;;;;;4987686;28;20057;-80
2023/05/26 01:45:21;;;;;;;8.13;4.93;;;;;;;;;;4972210;28;20129;-81
2023/05/26 01:47:50;;;;;;;10.00;4.63;;;;;;;;;;4965236;28;20427;-81
2023/05/26 01:50:17;;;;;;;7.15;4.22;;;;;;;;;;4947972;28;20495;-81
2023/05/26 01:52:44;;;;;;;7.40;4.75;;;;;;;;;;4963111;28;20101;-81
2023/05/26 01:55:14;;;;;;;8.85;5.22;;;;;;;;;;4984979;28;20046;-81
2023/05/26 01:57:41;;;;;;;9.38;4.72;;;;;;;;;;4966281;28;20511;-80
2023/05/26 02:00:15;;;;;;;8.27;4.97;;;;;;;;;;4964546;28;20514;-81
2023/05/26 02:02:42;;;;;;;10.07;4.43;;;;;;;;;;4973703;28;20053;-80
2023/05/26 02:05:09;;;;;;;7.60;4.85;;;;;;;;;;4999237;28;20089;-81
2023/05/26 02:07:38;;;;;;;6.15;4.43;;;;;;;;;;4983631;28;20556;-81
2023/05/26 02:10:06;;;;;;;7.20;4.53;;;;;;;;;;5001292;28;20064;-77
2023/05/26 02:12:33;;;;;;;7.05;4.70;;;;;;;;;;4997536;28;20077;-79
2023/05/26 02:14:59;;;;;;;8.98;4.72;;;;;;;;;;5004667;28;20108;-82
2023/05/26 02:17:26;;;;;;;6.13;4.55;;;;;;;;;;4988162;28;20069;-81
2023/05/26 02:19:53;;;;;;;6.88;4.57;;;;;;;;;;5020360;28;20053;-79
2023/05/26 02:22:20;;;;;;;8.40;4.82;;;;;;;;;;5002609;28;20525;-81
2023/05/26 02:24:47;;;;;;;10.82;4.78;;;;;;;;;;5004055;28;20095;-81
2023/05/26 02:27:13;;;;;;;7.60;4.78;;;;;;;;;;5003551;28;20100;-81
2023/05/26 02:29:40;;;;;;;7.40;5.13;;;;;;;;;;5003872;28;20496;-81
2023/05/26 02:32:07;;;;;;;8.73;4.75;;;;;;;;;;4986967;28;20136;-81
2023/05/26 02:34:34;;;;;;;7.80;5.20;;;;;;;;;;5011714;28;20065;-81
2023/05/26 02:37:01;;;;;;;11.05;4.90;;;;;;;;;;5007639;28;20104;-81
2023/05/26 02:39:28;;;;;;;8.43;5.00;;;;;;;;;;4991390;28;20160;-78
2023/05/26 02:41:54;;;;;;;9.63;5.20;;;;;;;;;;5005524;28;20132;-80
2023/05/26 02:44:21;;;;;;;8.07;4.75;;;;;;;;;;4987704;28;20088;-80
2023/05/26 02:46:48;;;;;;;9.15;5.30;;;;;;;;;;4969748;28;20058;-80
2023/05/26 02:49:15;;;;;;;9.20;5.13;;;;;;;;;;4985155;28;20084;-80
2023/05/26 02:51:41;;;;;;;9.15;5.35;;;;;;;;;;4969188;28;20696;-80
2023/05/26 02:54:08;;;;;;;9.95;5.35;;;;;;;;;;5005329;28;20053;-80
2023/05/26 02:56:35;;;;;;;8.18;5.07;;;;;;;;;;5005340;28;20510;-80
2023/05/26 02:59:02;;;;;;;9.88;5.38;;;;;;;;;;4990327;28;20076;-80
2023/05/26 03:01:29;;;;;;;9.88;5.18;;;;;;;;;;5005527;28;20064;-79
2023/05/26 03:03:56;;;;;;;9.80;5.32;;;;;;;;;;4985571;28;20396;-80
2023/05/26 03:06:23;;;;;;;9.55;5.38;;;;;;;;;;4965193;28;20050;-80
2023/05/26 03:08:50;;;;;;;9.98;5.30;;;;;;;;;;4996121;28;20050;-78
2023/05/26 03:11:17;;;;;;;8.93;5.57;;;;;;;;;;4982833;28;20062;-80
2023/05/26 03:13:44;;;;;;;10.38;5.07;;;;;;;;;;5000214;28;20065;-80
2023/05/26 03:16:12;;;;;;;7.50;4.90;;;;;;;;;;4990219;28;20080;-80
2023/05/26 03:18:38;;;;;;;11.57;5.90;;;;;;;;;;4989892;28;20080;-81
2023/05/26 03:21:06;;;;;;;10.70;6.07;;;;;;;;;;5021959;28;20085;-81
2023/05/26 03:23:53;;;;;;;10.30;6.03;;;;;;;;;;4992660;28;20118;-80
2023/05/26 03:26:22;;;;;;;10.73;6.00;;;;;;;;;;4983401;28;20049;-80
2023/05/26 03:28:48;;;;;;;8.13;5.50;;;;;;;;;;4983623;28;20050;-80
2023/05/26 03:31:15;;;;;;;10.80;5.70;;;;;;;;;;4981729;28;20066;-82
2023/05/26 03:33:44;;;;;;;10.48;5.50;;;;;;;;;;4996768;28;20050;-81
2023/05/26 03:36:11;;;;;;;10.02;5.90;;;;;;;;;;5005027;28;20049;-82
2023/05/26 03:38:38;;;;;;;10.50;6.13;;;;;;;;;;4990575;28;20127;-81
2023/05/26 03:41:05;;;;;;;7.78;5.68;;;;;;;;;;5006236;28;20053;-81
2023/05/26 03:43:32;;;;;;;11.75;6.72;;;;;;;;;;4977526;28;20125;-81
2023/05/26 03:46:00;;;;;;;9.73;5.68;;;;;;;;;;4985951;28;20085;-81
2023/05/26 03:48:28;;;;;;;8.68;5.82;;;;;;;;;;4970897;28;20046;-80
2023/05/26 03:50:54;;;;;;;9.15;5.63;;;;;;;;;;4969143;28;20078;-81
2023/05/26 03:53:21;;;;;;;10.77;5.50;;;;;;;;;;4993524;28;20107;-81
2023/05/26 03:55:48;;;;;;;10.13;6.25;;;;;;;;;;5004306;28;20148;-81
2023/05/26 03:58:15;;;;;;;10.70;6.10;;;;;;;;;;5002406;28;20105;-81
2023/05/26 04:00:42;;;;;;;9.88;6.10;;;;;;;;;;4984675;28;20049;-80
2023/05/26 04:03:09;;;;;;;9.20;5.72;;;;;;;;;;4978844;28;20081;-80
2023/05/26 04:05:35;;;;;;;8.10;5.72;;;;;;;;;;4971556;28;20051;-81
2023/05/26 04:08:02;;;;;;;12.65;6.07;;;;;;;;;;4978520;28;20050;-80
2023/05/26 04:10:29;;;;;;;11.07;5.47;;;;;;;;;;4961375;28;20077;-81
2023/05/26 04:12:56;;;;;;;11.30;6.43;;;;;;;;;;4967624;28;20140;-81
2023/05/26 04:15:22;;;;;;;7.70;5.35;;;;;;;;;;4989353;28;21745;-81
2023/05/26 04:17:50;;;;;;;10.43;5.82;;;;;;;;;;5005156;28;20100;-81
2023/05/26 04:20:17;;;;;;;8.77;5.22;;;;;;;;;;5005430;28;20075;-81
2023/05/26 04:22:44;;;;;;;14.80;6.43;;;;;;;;;;4985922;28;20101;-80
2023/05/26 04:25:11;;;;;;;12.23;5.88;;;;;;;;;;4996705;28;20077;-83
2023/05/26 04:27:38;;;;;;;6.63;5.25;;;;;;;;;;4986825;28;20053;-76
2023/05/26 04:30:05;;;;;;;9.20;5.78;;;;;;;;;;5003525;28;20537;-77
2023/05/26 04:32:33;;;;;;;10.48;6.18;;;;;;;;;;5006393;28;20093;-80
2023/05/26 04:35:00;;;;;;;12.38;5.95;;;;;;;;;;4995522;28;20053;-76
2023/05/26 04:37:27;;;;;;;11.10;6.28;;;;;;;;;;5015768;28;20105;-79
2023/05/26 04:39:55;;;;;;;9.50;5.70;;;;;;;;;;4999386;28;20057;-76
2023/05/26 04:42:25;;;;;;;9.77;5.90;;;;;;;;;;4999255;28;20061;-77
2023/05/26 04:44:54;;;;;;;9.32;6.00;;;;;;;;;;5015911;28;20092;-77
2023/05/26 04:47:23;;;;;;;11.55;5.88;;;;;;;;;;5015399;28;20069;-77
2023/05/26 04:49:51;;;;;;;9.55;5.82;;;;;;;;;;4982817;28;20054;-78
2023/05/26 04:52:18;;;;;;;11.88;6.38;;;;;;;;;;4982946;28;20585;-78
2023/05/26 04:54:45;;;;;;;8.98;6.10;;;;;;;;;;4968546;28;20050;-77
2023/05/26 04:57:12;;;;;;;7.07;5.90;;;;;;;;;;4962630;28;20042;-76
2023/05/26 04:59:39;;;;;;;11.57;6.45;;;;;;;;;;4989341;28;20058;-76
2023/05/26 05:02:06;;;;;;;9.52;6.40;;;;;;;;;;4970060;28;20115;-77
2023/05/26 05:04:33;;;;;;;11.32;6.22;;;;;;;;;;4979957;28;20116;-76
2023/05/26 05:07:00;;;;;;;9.75;6.22;;;;;;;;;;4979500;28;20046;-77
2023/05/26 05:09:29;;;;;;;10.55;6.50;;;;;;;;;;4978072;28;20096;-76
2023/05/26 05:11:56;;;;;;;10.23;6.75;;;;;;;;;;4976613;28;20410;-76
2023/05/26 05:14:23;;;;;;;14.40;7.40;;;;;;;;;;4983147;28;20056;-76
2023/05/26 05:16:50;;;;;;;14.13;7.70;;;;;;;;;;4999771;28;20096;-76
2023/05/26 05:19:17;;;;;;;10.95;6.45;;;;;;;;;;4983674;28;20107;-76
2023/05/26 05:21:43;;;;;;;11.45;6.30;;;;;;;;;;4981943;28;20089;-76
2023/05/26 05:24:10;;;;;;;11.13;6.63;;;;;;;;;;4996427;28;20077;-76
2023/05/26 05:26:37;;;;;;;13.43;6.55;;;;;;;;;;4997065;28;20049;-78
2023/05/26 05:29:04;;;;;;;9.32;6.38;;;;;;;;;;4991248;28;20085;-77
2023/05/26 05:31:31;;;;;;;13.57;6.40;;;;;;;;;;4996969;28;20745;-76
2023/05/26 05:33:58;;;;;;;11.13;5.93;;;;;;;;;;4978857;28;20054;-74
2023/05/26 05:36:25;;;;;;;14.35;6.72;;;;;;;;;;4998616;28;20128;-75
2023/05/26 05:38:52;;;;;;;14.27;7.65;;;;;;;;;;4997308;28;20053;-75
2023/05/26 05:41:19;;;;;;;10.55;6.35;;;;;;;;;;5015417;28;20049;-75
2023/05/26 05:43:45;;;;;;;11.43;6.70;;;;;;;;;;5015081;28;20050;-74
2023/05/26 05:46:12;;;;;;;14.15;6.85;;;;;;;;;;4992663;28;20058;-77
2023/05/26 05:48:42;;;;;;;18.85;6.93;;;;;;;;;;4991371;28;20050;-79
2023/05/26 05:51:08;;;;;;;13.27;7.00;;;;;;;;;;5015026;28;20049;-75
2023/05/26 05:53:35;;;;;;;13.95;7.70;;;;;;;;;;4985816;28;20050;-75
2023/05/26 05:56:02;;;;;;;13.90;6.13;;;;;;;;;;4990806;28;20132;-74
2023/05/26 05:58:30;;;;;;;12.60;5.78;;;;;;;;;;4987872;28;20057;-75
2023/05/26 06:00:57;;;;;;;14.40;7.07;;;;;;;;;;4994923;28;20129;-75
2023/05/26 06:03:25;;;;;;;13.15;7.03;;;;;;;;;;4979127;28;20081;-75
2023/05/26 06:05:52;;;;;;;11.98;7.53;;;;;;;;;;4979189;28;20115;-75
2023/05/26 06:08:19;;;;;;;10.98;6.35;;;;;;;;;;4973529;28;20560;-75
2023/05/26 06:10:46;;;;;;;11.63;7.15;;;;;;;;;;5003439;28;20107;-75
2023/05/26 06:13:13;;;;;;;14.48;6.65;;;;;;;;;;5009826;28;20662;-74
2023/05/26 06:15:40;;;;;;;13.80;6.70;;;;;;;;;;5004335;28;20107;-75
2023/05/26 06:18:07;;;;;;;13.10;6.68;;;;;;;;;;4995502;28;20050;-75
2023/05/26 06:20:34;;;;;;;13.68;6.80;;;;;;;;;;4959551;28;20113;-76
2023/05/26 06:23:01;;;;;;;17.13;7.22;;;;;;;;;;4975647;28;20050;-76
2023/05/26 06:25:27;;;;;;;12.45;7.07;;;;;;;;;;4994825;28;20057;-76
2023/05/26 06:27:54;;;;;;;10.85;6.68;;;;;;;;;;4965286;28;20054;-75
2023/05/26 06:30:23;;;;;;;13.40;6.75;;;;;;;;;;4959133;28;20081;-76
2023/05/26 06:32:50;;;;;;;14.77;6.35;;;;;;;;;;4975551;28;20054;-76
2023/05/26 06:35:16;;;;;;;10.20;5.78;;;;;;;;;;4959512;28;20065;-77
2023/05/26 06:37:43;;;;;;;13.63;6.25;;;;;;;;;;4978557;28;20441;-77
2023/05/26 06:40:11;;;;;;;12.35;6.13;;;;;;;;;;4978467;28;20418;-77
2023/05/26 06:42:37;;;;;;;11.32;6.57;;;;;;;;;;4962223;28;20050;-74
2023/05/26 06:45:05;;;;;;;11.60;6.78;;;;;;;;;;4994253;28;20129;-74
2023/05/26 06:47:31;;;;;;;11.95;7.07;;;;;;;;;;4993933;28;20077;-74
2023/05/26 06:49:58;;;;;;;12.60;6.68;;;;;;;;;;4994387;28;20145;-74
2023/05/26 06:52:27;;;;;;;10.98;6.60;;;;;;;;;;4963042;28;20065;-76
2023/05/26 06:54:54;;;;;;;13.95;7.05;;;;;;;;;;4978382;28;20058;-74
2023/05/26 06:57:21;;;;;;;11.15;6.55;;;;;;;;;;4963123;28;20133;-74
2023/05/26 06:59:47;;;;;;;10.45;5.90;;;;;;;;;;4994076;28;20569;-75
2023/05/26 07:02:14;;;;;;;11.93;6.40;;;;;;;;;;4994037;28;20085;-75
2023/05/26 07:04:41;;;;;;;12.15;6.57;;;;;;;;;;4994107;28;20485;-75
2023/05/26 07:07:08;;;;;;;8.25;5.88;;;;;;;;;;4997285;28;20084;-75
2023/05/26 07:09:35;;;;;;;8.98;6.18;;;;;;;;;;4981510;28;20099;-75
2023/05/26 07:12:02;;;;;;;8.85;6.35;;;;;;;;;;4997074;28;20049;-75
2023/05/26 07:14:29;;;;;;;9.65;6.55;;;;;;;;;;4997908;28;20152;-75
2023/05/26 07:16:56;;;;;;;13.73;6.90;;;;;;;;;;5022088;28;20046;-75
2023/05/26 07:19:23;;;;;;;10.43;5.85;;;;;;;;;;4998068;28;20417;-73
2023/05/26 07:21:50;;;;;;;11.18;6.15;;;;;;;;;;4995136;28;20065;-73
2023/05/26 07:24:16;;;;;;;9.32;5.60;;;;;;;;;;4985478;28;20073;-74
2023/05/26 07:26:43;;;;;;;9.65;5.93;;;;;;;;;;4986442;28;20497;-73
2023/05/26 07:29:10;;;;;;;8.73;6.18;;;;;;;;;;4958453;28;20042;-73
2023/05/26 07:31:37;;;;;;;10.60;6.15;;;;;;;;;;4995261;28;20088;-73
2023/05/26 07:34:04;;;;;;;11.98;6.35;;;;;;;;;;5004700;28;20068;-73
2023/05/26 07:36:32;;;;;;;11.40;5.70;;;;;;;;;;4995176;28;20045;-73
2023/05/26 07:38:58;;;;;;;14.77;6.63;;;;;;;;;;4975844;28;20048;-73
2023/05/26 07:41:25;;;;;;;11.25;6.55;;;;;;;;;;5003631;28;20049;-73
2023/05/26 07:43:52;;;;;;;10.63;5.95;;;;;;;;;;4995703;28;20054;-73
2023/05/26 07:46:19;;;;;;;10.10;6.05;;;;;;;;;;5010961;28;20136;-73
2023/05/26 07:48:47;;;;;;;9.55;5.15;;;;;;;;;;4984875;28;20222;-74
2023/05/26 07:51:15;;;;;;;9.18;5.13;;;;;;;;;;4998579;28;20457;-73
2023/05/26 07:53:41;;;;;;;14.38;6.30;;;;;;;;;;4968822;28;20124;-73
2023/05/26 07:56:08;;;;;;;11.13;6.43;;;;;;;;;;4986725;28;20108;-74
2023/05/26 07:58:38;;;;;;;11.18;6.32;;;;;;;;;;4987648;28;20137;-74
2023/05/26 08:01:06;;;;;;;11.68;6.47;;;;;;;;;;4975903;28;20147;-77
2023/05/26 08:03:34;;;;;;;11.15;5.80;;;;;;;;;;4991460;28;20061;-74
2023/05/26 08:06:01;;;;;;;10.13;6.18;;;;;;;;;;4992402;28;20045;-74
2023/05/26 08:08:43;;;;;;;11.00;6.45;;;;;;;;;;5003901;28;20046;-74
2023/05/26 08:11:10;;;;;;;8.65;6.13;;;;;;;;;;4982358;28;20151;-74
2023/05/26 08:13:36;;;;;;;12.85;6.00;;;;;;;;;;4977125;28;20083;-74
2023/05/26 08:16:03;;;;;;;12.80;6.65;;;;;;;;;;5020404;28;20076;-76
2023/05/26 08:18:30;;;;;;;16.08;7.05;;;;;;;;;;4996324;28;20137;-73
2023/05/26 08:20:57;;;;;;;11.07;6.60;;;;;;;;;;4987627;28;20112;-74
2023/05/26 08:23:24;;;;;;;11.40;6.22;;;;;;;;;;4996539;28;20053;-73
2023/05/26 08:25:51;;;;;;;13.70;6.75;;;;;;;;;;5013626;28;20089;-73
2023/05/26 08:28:18;;;;;;;10.48;6.20;;;;;;;;;;4997742;28;20077;-73
2023/05/26 08:30:45;;;;;;;12.27;6.55;;;;;;;;;;5017505;28;20054;-73
2023/05/26 08:33:12;;;;;;;20.05;7.47;;;;;;;;;;4999238;28;20042;-73
2023/05/26 08:35:39;;;;;;;12.75;6.28;;;;;;;;;;4989986;28;20674;-73
2023/05/26 08:38:06;;;;;;;11.15;7.15;;;;;;;;;;4959733;28;20121;-73
2023/05/26 08:40:33;;;;;;;14.88;7.43;;;;;;;;;;4991444;28;20054;-73
2023/05/26 08:43:06;;;;;;;15.52;7.50;;;;;;;;;;4978150;28;20108;-73
2023/05/26 08:45:34;;;;;;;10.55;6.82;;;;;;;;;;4975568;28;20073;-80
2023/05/26 08:48:01;;;;;;;8.57;5.60;;;;;;;;;;4956029;28;20491;-77
2023/05/26 08:50:31;;;;;;;11.68;6.95;;;;;;;;;;4992107;28;20165;-76
2023/05/26 08:52:59;;;;;;;12.30;7.57;;;;;;;;;;4953047;28;20495;-77
2023/05/26 08:55:32;;;;;;;9.70;6.43;;;;;;;;;;4978769;28;20081;-75
2023/05/26 08:58:00;;;;;;;12.75;6.78;;;;;;;;;;4954074;28;20459;-75
2023/05/26 09:00:30;;;;;;;15.13;6.93;;;;;;;;;;4948821;28;20130;-74
2023/05/26 09:02:57;;;;;;;8.50;5.57;;;;;;;;;;4993621;28;20119;-74
2023/05/26 09:05:24;;;;;;;11.88;5.88;;;;;;;;;;4952608;28;20133;-75
2023/05/26 09:07:51;;;;;;;14.40;6.68;;;;;;;;;;4985206;28;20046;-75
2023/05/26 09:10:31;;;;;;;13.48;5.82;;;;;;;;;;4980863;28;20526;-74
2023/05/26 09:13:03;;;;;;;11.85;6.65;;;;;;;;;;4979648;28;20064;-75
2023/05/26 09:15:30;;;;;;;9.90;5.88;;;;;;;;;;4957423;28;20105;-75
2023/05/26 09:18:15;;;;;;;9.88;5.50;;;;;;;;;;4952348;28;20506;-77
2023/05/26 09:20:47;;;;;;;8.68;4.90;;;;;;;;;;4974667;28;20113;-75
2023/05/26 09:23:16;;;;;;;17.35;6.25;;;;;;;;;;4987309;28;20045;-74
2023/05/26 09:25:45;;;;;;;11.45;6.43;;;;;;;;;;4973375;28;20058;-78
2023/05/26 09:28:13;;;;;;;15.18;6.05;;;;;;;;;;4974808;28;20129;-73
2023/05/26 09:30:45;;;;;;;8.32;5.85;;;;;;;;;;4984365;28;20057;-74
2023/05/26 09:33:16;;;;;;;11.30;6.15;;;;;;;;;;4953708;28;20503;-73
2023/05/26 09:35:46;;;;;;;8.52;5.53;;;;;;;;;;4981603;28;20137;-75
2023/05/26 09:38:15;;;;;;;9.07;5.95;;;;;;;;;;4967527;28;20421;-72
2023/05/26 09:40:45;;;;;;;13.10;6.72;;;;;;;;;;4980315;28;20050;-71
2023/05/26 09:43:12;;;;;;;10.52;6.50;;;;;;;;;;4988804;28;20049;-71
2023/05/26 09:45:40;;;;;;;10.45;5.82;;;;;;;;;;4963139;28;20050;-71
2023/05/26 09:48:08;;;;;;;12.68;5.55;;;;;;;;;;4967944;28;20936;-72
2023/05/26 09:50:37;;;;;;;13.13;6.03;;;;;;;;;;4965463;28;20129;-71
2023/05/26 09:53:05;;;;;;;8.57;4.65;;;;;;;;;;4975988;28;20053;-72
2023/05/26 09:55:32;;;;;;;11.75;5.63;;;;;;;;;;4984296;28;20054;-71
2023/05/26 09:58:04;;;;;;;9.27;5.68;;;;;;;;;;4986487;28;20073;-71
2023/05/26 10:00:33;;;;;;;11.02;5.97;;;;;;;;;;4990494;28;20049;-72
2023/05/26 10:03:03;;;;;;;10.13;5.40;;;;;;;;;;4976149;28;20050;-72
2023/05/26 10:05:34;;;;;;;10.05;6.10;;;;;;;;;;4961820;28;20057;-73
2023/05/26 10:08:01;;;;;;;9.50;5.95;;;;;;;;;;4950820;28;20045;-72
2023/05/26 10:10:32;;;;;;;11.07;5.25;;;;;;;;;;4993212;28;20823;-72
2023/05/26 10:12:58;;;;;;;9.05;5.00;;;;;;;;;;4967628;28;20085;-71
2023/05/26 10:15:25;;;;;;;10.93;5.25;;;;;;;;;;4975448;28;20064;-72
2023/05/26 10:17:53;;;;;;;10.27;5.15;;;;;;;;;;4967353;28;20062;-72
2023/05/26 10:20:20;;;;;;;10.32;5.25;;;;;;;;;;4987020;28;20137;-71
2023/05/26 10:23:13;;;;;;;11.35;5.47;;;;;;;;;;4958301;28;20053;-72
2023/05/26 10:25:50;;;;;;;;;;;;;;;;;;5000889;28;20065;-71
2023/05/26 10:28:37;;;;;;;10.13;5.20;;;;;;;;;;4991934;28;19948;-71
2023/05/26 10:31:04;;;;;;;8.02;4.55;;;;;;;;;;4985199;28;20056;-71
2023/05/26 10:33:38;;;;;;;8.90;4.65;;;;;;;;;;4967080;28;20177;-71
2023/05/26 10:36:08;;;;;;;9.15;5.00;;;;;;;;;;4980124;28;20058;-71
2023/05/26 10:38:36;;;;;;;9.02;4.85;;;;;;;;;;4993880;28;20130;-71
2023/05/26 10:41:03;;;;;;;10.57;5.88;;;;;;;;;;4972818;28;20133;-72
2023/05/26 10:43:30;;;;;;;7.93;4.55;;;;;;;;;;4956235;28;20135;-71
2023/05/26 10:46:01;;;;;;;10.27;4.90;;;;;;;;;;4998880;28;20049;-71
2023/05/26 10:48:42;;;;;;;11.23;5.22;;;;;;;;;;4977962;28;20070;-71
2023/05/26 10:51:23;;;;;;;6.47;4.20;;;;;;;;;;4961049;28;20060;-74
2023/05/26 10:53:51;;;;;;;11.98;5.63;;;;;;;;;;4990324;28;20141;-72
2023/05/26 10:56:25;;;;;;;9.40;4.70;;;;;;;;;;4950863;28;20076;-71
2023/05/26 10:58:57;;;;;;;6.97;5.30;;;;;;;;;;4983438;28;20038;-74
2023/05/26 11:01:31;;;;;;;12.38;5.13;;;;;;;;;;4981830;28;20049;-74
2023/05/26 11:04:05;;;;;;;10.13;5.10;;;;;;;;;;4981363;28;20049;-73
2023/05/26 11:06:59;;;;;;;8.98;4.55;;;;;;;;;;4986014;28;20049;-73
2023/05/26 11:09:27;;;;;;;8.80;4.65;;;;;;;;;;4975377;28;20494;-74
2023/05/26 11:11:55;;;;;;;8.57;4.93;;;;;;;;;;4947498;28;20050;-74
2023/05/26 11:14:24;;;;;;;11.18;5.07;;;;;;;;;;4991150;28;20042;-74
2023/05/26 11:16:52;;;;;;;7.72;4.80;;;;;;;;;;4992851;28;20444;-74
2023/05/26 11:19:35;;;;;;;7.40;5.20;;;;;;;;;;4971631;28;20042;-74
2023/05/26 11:22:10;;;;;;;9.05;4.70;;;;;;;;;;5003792;28;20050;-74
2023/05/26 11:24:37;;;;;;;7.38;4.80;;;;;;;;;;4979170;28;20100;-74
2023/05/26 11:27:05;;;;;;;8.80;4.65;;;;;;;;;;4993915;28;20065;-74
2023/05/26 11:29:32;;;;;;;7.93;4.80;;;;;;;;;;4980302;28;20445;-74
2023/05/26 11:31:59;;;;;;;8.02;4.40;;;;;;;;;;4965978;28;20061;-74
2023/05/26 11:34:27;;;;;;;10.20;4.93;;;;;;;;;;4982156;28;20053;-74
2023/05/26 11:36:54;;;;;;;6.88;4.97;;;;;;;;;;4970141;28;20488;-73
2023/05/26 11:39:21;;;;;;;6.72;4.43;;;;;;;;;;4967372;28;20052;-73
2023/05/26 11:41:49;;;;;;;7.57;4.35;;;;;;;;;;5020105;28;20053;-74
2023/05/26 11:44:16;;;;;;;6.38;4.93;;;;;;;;;;4987390;28;20077;-74
2023/05/26 11:46:44;;;;;;;9.68;4.97;;;;;;;;;;4996572;28;20058;-74
2023/05/26 11:49:14;;;;;;;9.13;4.75;;;;;;;;;;4982631;28;20050;-74
2023/05/26 11:51:48;;;;;;;9.63;4.88;;;;;;;;;;4968565;28;20127;-74
2023/05/26 11:54:15;;;;;;;9.65;4.30;;;;;;;;;;4990012;28;20493;-74
2023/05/26 11:56:43;;;;;;;7.07;4.65;;;;;;;;;;4979072;28;20052;-73
2023/05/26 11:59:10;;;;;;;6.75;4.38;;;;;;;;;;5001629;28;20073;-73
2023/05/26 12:01:37;;;;;;;7.40;4.60;;;;;;;;;;5009674;28;20053;-74
2023/05/26 12:04:04;;;;;;;5.45;4.05;;;;;;;;;;4992506;28;20093;-74
2023/05/26 12:06:31;;;;;;;7.28;4.20;;;;;;;;;;5001690;28;20060;-74
2023/05/26 12:09:09;;;;;;;10.25;4.75;;;;;;;;;;4978201;28;20042;-73
2023/05/26 12:11:42;;;;;;;9.45;4.50;;;;;;;;;;4982612;28;20142;-74
2023/05/26 12:14:13;;;;;;;8.20;4.55;;;;;;;;;;5011392;28;20061;-73
2023/05/26 12:16:45;;;;;;;7.68;4.00;;;;;;;;;;4984953;28;20141;-73
2023/05/26 12:19:16;;;;;;;7.03;4.20;;;;;;;;;;4995062;28;20104;-73
2023/05/26 12:21:56;;;;;;;8.13;5.10;;;;;;;;;;5014150;28;20077;-77
2023/05/26 12:24:32;;;;;;;6.50;3.63;;;;;;;;;;4982270;28;20057;-78
2023/05/26 12:27:11;;;;;;;7.20;4.00;;;;;;;;;;4989419;28;20119;-74
2023/05/26 12:29:42;;;;;;;7.20;3.80;;;;;;;;;;4975718;28;20054;-74
2023/05/26 12:32:13;;;;;;;6.40;4.70;;;;;;;;;;4980278;28;20112;-75
2023/05/26 12:34:40;;;;;;;9.23;3.92;;;;;;;;;;4995859;28;20564;-75
2023/05/26 12:37:07;;;;;;;9.52;4.50;;;;;;;;;;4998345;28;20054;-75
2023/05/26 12:39:35;;;;;;;8.57;3.65;;;;;;;;;;4992315;28;20116;-75
2023/05/26 12:42:02;;;;;;;6.38;4.30;;;;;;;;;;4963033;28;20054;-75
2023/05/26 12:44:29;;;;;;;7.47;4.05;;;;;;;;;;4970086;28;20126;-76
2023/05/26 12:46:56;;;;;;;5.53;3.78;;;;;;;;;;4998790;28;20050;-76
2023/05/26 12:49:23;;;;;;;5.65;3.65;;;;;;;;;;5014518;28;20045;-76
2023/05/26 12:51:53;;;;;;;5.10;3.38;;;;;;;;;;4981536;28;20061;-75
2023/05/26 12:54:20;;;;;;;5.60;3.65;;;;;;;;;;5006624;28;20054;-75
2023/05/26 12:56:47;;;;;;;9.50;3.85;;;;;;;;;;4975446;28;20574;-75
2023/05/26 12:59:15;;;;;;;9.65;3.80;;;;;;;;;;4977318;28;20054;-75
2023/05/26 13:01:47;;;;;;;6.75;4.00;;;;;;;;;;4991472;28;20096;-74
2023/05/26 13:04:16;;;;;;;6.55;3.60;;;;;;;;;;4990049;28;20135;-75
2023/05/26 13:06:43;;;;;;;5.95;3.55;;;;;;;;;;4985273;28;20068;-75
2023/05/26 13:09:11;;;;;;;6.97;3.95;;;;;;;;;;4982521;28;20129;-76
2023/05/26 13:11:38;;;;;;;6.03;3.25;;;;;;;;;;4986042;28;20129;-75
2023/05/26 13:14:05;;;;;;;6.47;3.78;;;;;;;;;;5002531;28;20517;-72
2023/05/26 13:16:32;;;;;;;6.05;3.50;;;;;;;;;;4966382;28;20117;-75
2023/05/26 13:19:00;;;;;;;4.35;3.45;;;;;;;;;;4987692;28;20045;-74
2023/05/26 13:21:27;;;;;;;8.60;3.92;;;;;;;;;;5016173;28;20517;-74
2023/05/26 13:23:55;;;;;;;5.05;3.47;;;;;;;;;;4982193;28;20077;-75
2023/05/26 13:26:24;;;;;;;5.65;4.07;;;;;;;;;;4986436;28;20107;-75
2023/05/26 13:28:51;;;;;;;4.88;3.47;;;;;;;;;;4993587;28;20070;-73
2023/05/26 13:31:20;;;;;;;4.10;3.35;;;;;;;;;;5006410;28;20519;-74
2023/05/26 13:33:47;;;;;;;4.38;3.00;;;;;;;;;;4999242;28;20486;-73
2023/05/26 13:36:14;;;;;;;5.32;3.78;;;;;;;;;;4989876;28;20101;-73
2023/05/26 13:38:41;;;;;;;6.70;3.80;;;;;;;;;;5004479;28;20520;-73
2023/05/26 13:41:10;;;;;;;6.40;4.07;;;;;;;;;;4994745;28;20077;-73
2023/05/26 13:43:37;;;;;;;6.95;3.45;;;;;;;;;;4995394;28;20111;-75
2023/05/26 13:46:04;;;;;;;5.18;3.47;;;;;;;;;;5009021;28;20132;-74
2023/05/26 13:48:32;;;;;;;6.32;3.47;;;;;;;;;;4978571;28;20054;-74
2023/05/26 13:50:58;;;;;;;4.68;3.25;;;;;;;;;;4985535;28;20042;-74
2023/05/26 13:53:25;;;;;;;6.82;3.90;;;;;;;;;;5005009;28;20108;-73
2023/05/26 13:55:52;;;;;;;5.32;3.80;;;;;;;;;;4963220;28;20394;-74
2023/05/26 13:58:19;;;;;;;6.72;3.90;;;;;;;;;;4995604;28;20056;-73
2023/05/26 14:00:46;;;;;;;7.65;3.40;;;;;;;;;;5000341;28;20050;-73
2023/05/26 14:03:12;;;;;;;5.93;3.65;;;;;;;;;;5017894;28;20104;-73
2023/05/26 14:05:41;;;;;;;6.63;3.75;;;;;;;;;;4981550;28;20503;-73
2023/05/26 14:08:08;;;;;;;7.97;3.95;;;;;;;;;;4971732;28;20112;-73
2023/05/26 14:10:36;;;;;;;5.15;3.50;;;;;;;;;;4954663;28;20059;-72
2023/05/26 14:13:03;;;;;;;10.02;4.20;;;;;;;;;;4977756;28;20061;-72
2023/05/26 14:15:30;;;;;;;6.05;3.78;;;;;;;;;;4977031;28;20077;-72
2023/05/26 14:17:57;;;;;;;5.10;3.38;;;;;;;;;;4977063;28;20173;-75
2023/05/26 14:20:26;;;;;;;5.97;4.22;;;;;;;;;;4958661;28;20410;-76
2023/05/26 14:23:13;;;;;;;6.93;3.67;;;;;;;;;;4974779;28;20853;-76
2023/05/26 14:25:40;;;;;;;5.75;3.88;;;;;;;;;;4962592;28;20073;-76
2023/05/26 14:28:07;;;;;;;7.15;3.38;;;;;;;;;;4998056;28;20136;-77
2023/05/26 14:30:34;;;;;;;5.82;3.60;;;;;;;;;;4979623;28;20054;-77
2023/05/26 14:33:03;;;;;;;4.93;3.42;;;;;;;;;;4976758;28;20152;-75
2023/05/26 14:35:30;;;;;;;8.63;4.18;;;;;;;;;;4955920;28;20058;-76
2023/05/26 14:37:57;;;;;;;5.03;3.92;;;;;;;;;;4985860;28;20081;-77
2023/05/26 14:40:24;;;;;;;4.95;3.38;;;;;;;;;;4973125;28;20053;-76
2023/05/26 14:42:51;;;;;;;8.48;3.80;;;;;;;;;;4978217;28;20069;-76
2023/05/26 14:45:18;;;;;;;5.63;3.70;;;;;;;;;;4978073;28;20053;-74
2023/05/26 14:47:45;;;;;;;6.75;4.32;;;;;;;;;;4994240;28;20088;-74